sensor_id;sensor_type;location;lat;lon;timestamp;P1;durP1;ratioP1;P2;durP2;ratioP2
74528;SDS011;63009;52.584;5.932;2024-03-08T00:00:00;23.90;;;11.10;;
74528;SDS011;63009;52.584;5.932;2024-03-08T00:02:34;28.45;;;12.88;;
74528;SDS011;63009;52.584;5.932;2024-03-08T00:05:01;30.27;;;12.65;;
74528;SDS011;63009;52.584;5.932;2024-03-08T00:07:27;25.00;;;12.80;;
74528;SDS011;63009;52.584;5.932;2024-03-08T00:09:52;28.75;;;12.85;;
74528;SDS011;63009;52.584;5.932;2024-03-08T00:12:18;28.65;;;12.68;;
74528;SDS011;63009;52.584;5.932;2024-03-08T00:14:43;29.65;;;13.57;;
74528;SDS011;63009;52.584;5.932;2024-03-08T00:17:09;30.20;;;13.10;;
74528;SDS011;63009;52.584;5.932;2024-03-08T00:19:35;27.88;;;13.55;;
74528;SDS011;63009;52.584;5.932;2024-03-08T00:22:00;27.37;;;12.17;;
74528;SDS011;63009;52.584;5.932;2024-03-08T00:24:25;31.05;;;13.02;;
74528;SDS011;63009;52.584;5.932;2024-03-08T00:26:51;27.50;;;12.43;;
74528;SDS011;63009;52.584;5.932;2024-03-08T00:29:16;29.05;;;13.45;;
74528;SDS011;63009;52.584;5.932;2024-03-08T00:31:42;28.15;;;12.80;;
74528;SDS011;63009;52.584;5.932;2024-03-08T00:34:07;28.88;;;13.15;;
74528;SDS011;63009;52.584;5.932;2024-03-08T00:36:36;29.42;;;12.77;;
74528;SDS011;63009;52.584;5.932;2024-03-08T00:39:02;30.40;;;13.98;;
74528;SDS011;63009;52.584;5.932;2024-03-08T00:41:31;33.13;;;13.30;;
74528;SDS011;63009;52.584;5.932;2024-03-08T00:43:56;28.27;;;13.07;;
74528;SDS011;63009;52.584;5.932;2024-03-08T00:46:22;27.00;;;11.93;;
74528;SDS011;63009;52.584;5.932;2024-03-08T00:48:47;28.33;;;12.38;;
74528;SDS011;63009;52.584;5.932;2024-03-08T00:51:13;23.70;;;11.65;;
74528;SDS011;63009;52.584;5.932;2024-03-08T00:53:40;27.42;;;12.65;;
74528;SDS011;63009;52.584;5.932;2024-03-08T00:56:06;26.50;;;11.80;;
74528;SDS011;63009;52.584;5.932;2024-03-08T00:58:36;27.63;;;12.57;;
74528;SDS011;63009;52.584;5.932;2024-03-08T01:01:03;24.42;;;12.40;;
74528;SDS011;63009;52.584;5.932;2024-03-08T01:03:30;26.70;;;12.02;;
74528;SDS011;63009;52.584;5.932;2024-03-08T01:05:59;26.55;;;11.35;;
74528;SDS011;63009;52.584;5.932;2024-03-08T01:08:26;21.25;;;12.32;;
74528;SDS011;63009;52.584;5.932;2024-03-08T01:10:52;26.70;;;12.30;;
74528;SDS011;63009;52.584;5.932;2024-03-08T01:13:17;29.20;;;13.13;;
74528;SDS011;63009;52.584;5.932;2024-03-08T01:15:43;30.92;;;12.40;;
74528;SDS011;63009;52.584;5.932;2024-03-08T01:18:08;28.30;;;13.02;;
74528;SDS011;63009;52.584;5.932;2024-03-08T01:20:35;25.45;;;12.55;;
74528;SDS011;63009;52.584;5.932;2024-03-08T01:23:00;29.23;;;12.32;;
74528;SDS011;63009;52.584;5.932;2024-03-08T01:25:26;25.45;;;11.10;;
74528;SDS011;63009;52.584;5.932;2024-03-08T01:27:52;29.05;;;12.40;;
74528;SDS011;63009;52.584;5.932;2024-03-08T01:30:21;27.98;;;12.70;;
74528;SDS011;63009;52.584;5.932;2024-03-08T01:32:48;28.73;;;12.80;;
74528;SDS011;63009;52.584;5.932;2024-03-08T01:35:13;26.40;;;12.95;;
74528;SDS011;63009;52.584;5.932;2024-03-08T01:37:39;26.98;;;12.95;;
74528;SDS011;63009;52.584;5.932;2024-03-08T01:40:04;27.08;;;12.13;;
74528;SDS011;63009;52.584;5.932;2024-03-08T01:42:30;26.73;;;12.10;;
74528;SDS011;63009;52.584;5.932;2024-03-08T01:44:55;32.97;;;12.45;;
74528;SDS011;63009;52.584;5.932;2024-03-08T01:47:21;24.52;;;11.07;;
74528;SDS011;63009;52.584;5.932;2024-03-08T01:49:50;26.00;;;11.80;;
74528;SDS011;63009;52.584;5.932;2024-03-08T01:52:16;24.35;;;11.13;;
74528;SDS011;63009;52.584;5.932;2024-03-08T01:54:45;33.50;;;12.63;;
74528;SDS011;63009;52.584;5.932;2024-03-08T01:57:11;29.63;;;13.15;;
74528;SDS011;63009;52.584;5.932;2024-03-08T01:59:37;30.17;;;12.25;;
74528;SDS011;63009;52.584;5.932;2024-03-08T02:02:03;26.17;;;12.88;;
74528;SDS011;63009;52.584;5.932;2024-03-08T02:04:31;27.45;;;13.68;;
74528;SDS011;63009;52.584;5.932;2024-03-08T02:06:56;30.40;;;13.32;;
74528;SDS011;63009;52.584;5.932;2024-03-08T02:09:23;25.35;;;11.90;;
74528;SDS011;63009;52.584;5.932;2024-03-08T02:11:50;28.05;;;13.60;;
74528;SDS011;63009;52.584;5.932;2024-03-08T02:14:16;29.27;;;13.50;;
74528;SDS011;63009;52.584;5.932;2024-03-08T02:16:43;30.42;;;14.00;;
74528;SDS011;63009;52.584;5.932;2024-03-08T02:19:09;27.45;;;13.45;;
74528;SDS011;63009;52.584;5.932;2024-03-08T02:21:35;30.38;;;13.18;;
74528;SDS011;63009;52.584;5.932;2024-03-08T02:24:01;30.85;;;13.85;;
74528;SDS011;63009;52.584;5.932;2024-03-08T02:26:26;25.33;;;12.02;;
74528;SDS011;63009;52.584;5.932;2024-03-08T02:28:52;29.02;;;12.40;;
74528;SDS011;63009;52.584;5.932;2024-03-08T02:31:17;28.58;;;11.40;;
74528;SDS011;63009;52.584;5.932;2024-03-08T02:33:43;25.73;;;12.10;;
74528;SDS011;63009;52.584;5.932;2024-03-08T02:36:08;28.67;;;12.93;;
74528;SDS011;63009;52.584;5.932;2024-03-08T02:38:34;31.00;;;15.05;;
74528;SDS011;63009;52.584;5.932;2024-03-08T02:40:59;30.48;;;14.20;;
74528;SDS011;63009;52.584;5.932;2024-03-08T02:43:24;30.08;;;14.07;;
74528;SDS011;63009;52.584;5.932;2024-03-08T02:45:50;27.13;;;12.15;;
74528;SDS011;63009;52.584;5.932;2024-03-08T02:48:18;30.15;;;13.32;;
74528;SDS011;63009;52.584;5.932;2024-03-08T02:50:44;31.08;;;13.30;;
74528;SDS011;63009;52.584;5.932;2024-03-08T02:53:10;26.05;;;12.63;;
74528;SDS011;63009;52.584;5.932;2024-03-08T02:55:36;31.02;;;13.70;;
74528;SDS011;63009;52.584;5.932;2024-03-08T02:58:06;30.55;;;12.40;;
74528;SDS011;63009;52.584;5.932;2024-03-08T03:00:35;27.27;;;12.68;;
74528;SDS011;63009;52.584;5.932;2024-03-08T03:03:01;29.73;;;12.68;;
74528;SDS011;63009;52.584;5.932;2024-03-08T03:05:28;31.65;;;13.60;;
74528;SDS011;63009;52.584;5.932;2024-03-08T03:07:54;27.90;;;11.70;;
74528;SDS011;63009;52.584;5.932;2024-03-08T03:10:20;30.90;;;13.90;;
74528;SDS011;63009;52.584;5.932;2024-03-08T03:12:46;26.33;;;12.05;;
74528;SDS011;63009;52.584;5.932;2024-03-08T03:15:14;30.77;;;14.23;;
74528;SDS011;63009;52.584;5.932;2024-03-08T03:17:45;27.55;;;13.68;;
74528;SDS011;63009;52.584;5.932;2024-03-08T03:20:15;32.28;;;13.30;;
74528;SDS011;63009;52.584;5.932;2024-03-08T03:22:47;27.48;;;14.10;;
74528;SDS011;63009;52.584;5.932;2024-03-08T03:25:20;32.22;;;14.27;;
74528;SDS011;63009;52.584;5.932;2024-03-08T03:27:51;28.58;;;13.40;;
74528;SDS011;63009;52.584;5.932;2024-03-08T03:30:17;27.73;;;13.30;;
74528;SDS011;63009;52.584;5.932;2024-03-08T03:32:46;26.20;;;13.57;;
74528;SDS011;63009;52.584;5.932;2024-03-08T03:35:16;28.42;;;14.68;;
74528;SDS011;63009;52.584;5.932;2024-03-08T03:37:42;27.25;;;13.43;;
74528;SDS011;63009;52.584;5.932;2024-03-08T03:40:10;27.52;;;13.15;;
74528;SDS011;63009;52.584;5.932;2024-03-08T03:42:36;27.98;;;13.80;;
74528;SDS011;63009;52.584;5.932;2024-03-08T03:45:03;30.25;;;14.40;;
74528;SDS011;63009;52.584;5.932;2024-03-08T03:47:30;28.83;;;12.85;;
74528;SDS011;63009;52.584;5.932;2024-03-08T03:49:55;31.10;;;14.43;;
74528;SDS011;63009;52.584;5.932;2024-03-08T03:52:21;29.65;;;14.13;;
74528;SDS011;63009;52.584;5.932;2024-03-08T03:54:46;28.70;;;13.95;;
74528;SDS011;63009;52.584;5.932;2024-03-08T03:57:12;32.22;;;13.73;;
74528;SDS011;63009;52.584;5.932;2024-03-08T03:59:37;28.92;;;14.50;;
74528;SDS011;63009;52.584;5.932;2024-03-08T04:02:02;33.13;;;14.90;;
74528;SDS011;63009;52.584;5.932;2024-03-08T04:04:29;31.83;;;14.07;;
74528;SDS011;63009;52.584;5.932;2024-03-08T04:06:54;30.27;;;12.88;;
74528;SDS011;63009;52.584;5.932;2024-03-08T04:09:19;30.10;;;13.93;;
74528;SDS011;63009;52.584;5.932;2024-03-08T04:11:47;30.23;;;13.57;;
74528;SDS011;63009;52.584;5.932;2024-03-08T04:14:13;29.63;;;13.63;;
74528;SDS011;63009;52.584;5.932;2024-03-08T04:16:38;30.33;;;13.40;;
74528;SDS011;63009;52.584;5.932;2024-03-08T04:19:03;32.40;;;15.95;;
74528;SDS011;63009;52.584;5.932;2024-03-08T04:21:32;28.30;;;14.15;;
74528;SDS011;63009;52.584;5.932;2024-03-08T04:23:57;29.75;;;13.70;;
74528;SDS011;63009;52.584;5.932;2024-03-08T04:26:23;29.40;;;13.05;;
74528;SDS011;63009;52.584;5.932;2024-03-08T04:28:51;35.20;;;15.52;;
74528;SDS011;63009;52.584;5.932;2024-03-08T04:31:16;28.10;;;13.70;;
74528;SDS011;63009;52.584;5.932;2024-03-08T04:33:42;29.92;;;14.00;;
74528;SDS011;63009;52.584;5.932;2024-03-08T04:36:07;29.42;;;13.77;;
74528;SDS011;63009;52.584;5.932;2024-03-08T04:38:33;32.75;;;13.70;;
74528;SDS011;63009;52.584;5.932;2024-03-08T04:40:58;32.28;;;14.75;;
74528;SDS011;63009;52.584;5.932;2024-03-08T04:43:24;32.22;;;14.88;;
74528;SDS011;63009;52.584;5.932;2024-03-08T04:45:51;28.42;;;14.55;;
74528;SDS011;63009;52.584;5.932;2024-03-08T04:48:17;33.15;;;15.05;;
74528;SDS011;63009;52.584;5.932;2024-03-08T04:50:42;28.73;;;14.18;;
74528;SDS011;63009;52.584;5.932;2024-03-08T04:53:09;27.77;;;14.07;;
74528;SDS011;63009;52.584;5.932;2024-03-08T04:55:35;32.17;;;15.82;;
74528;SDS011;63009;52.584;5.932;2024-03-08T04:58:00;33.33;;;14.95;;
74528;SDS011;63009;52.584;5.932;2024-03-08T05:00:26;30.30;;;14.93;;
74528;SDS011;63009;52.584;5.932;2024-03-08T05:02:51;32.72;;;14.60;;
74528;SDS011;63009;52.584;5.932;2024-03-08T05:05:18;31.48;;;14.45;;
74528;SDS011;63009;52.584;5.932;2024-03-08T05:07:43;30.90;;;15.38;;
74528;SDS011;63009;52.584;5.932;2024-03-08T05:10:10;29.67;;;14.55;;
74528;SDS011;63009;52.584;5.932;2024-03-08T05:12:39;28.48;;;14.02;;
74528;SDS011;63009;52.584;5.932;2024-03-08T05:15:04;33.67;;;15.17;;
74528;SDS011;63009;52.584;5.932;2024-03-08T05:17:32;29.98;;;14.07;;
74528;SDS011;63009;52.584;5.932;2024-03-08T05:19:57;29.63;;;16.75;;
74528;SDS011;63009;52.584;5.932;2024-03-08T05:22:23;28.40;;;16.02;;
74528;SDS011;63009;52.584;5.932;2024-03-08T05:24:48;32.35;;;16.85;;
74528;SDS011;63009;52.584;5.932;2024-03-08T05:27:13;31.05;;;14.43;;
74528;SDS011;63009;52.584;5.932;2024-03-08T05:29:39;29.63;;;13.73;;
74528;SDS011;63009;52.584;5.932;2024-03-08T05:32:04;30.17;;;14.80;;
74528;SDS011;63009;52.584;5.932;2024-03-08T05:34:30;32.55;;;15.15;;
74528;SDS011;63009;52.584;5.932;2024-03-08T05:36:55;31.92;;;15.75;;
74528;SDS011;63009;52.584;5.932;2024-03-08T05:39:21;34.30;;;15.02;;
74528;SDS011;63009;52.584;5.932;2024-03-08T05:41:47;37.65;;;17.45;;
74528;SDS011;63009;52.584;5.932;2024-03-08T05:44:12;33.65;;;15.52;;
74528;SDS011;63009;52.584;5.932;2024-03-08T05:46:38;35.60;;;15.73;;
74528;SDS011;63009;52.584;5.932;2024-03-08T05:49:04;29.38;;;15.98;;
74528;SDS011;63009;52.584;5.932;2024-03-08T05:51:34;35.30;;;16.00;;
74528;SDS011;63009;52.584;5.932;2024-03-08T05:54:03;29.60;;;15.50;;
74528;SDS011;63009;52.584;5.932;2024-03-08T05:56:34;29.85;;;14.70;;
74528;SDS011;63009;52.584;5.932;2024-03-08T05:59:00;29.05;;;14.30;;
74528;SDS011;63009;52.584;5.932;2024-03-08T06:01:26;33.10;;;15.32;;
74528;SDS011;63009;52.584;5.932;2024-03-08T06:03:53;32.50;;;14.63;;
74528;SDS011;63009;52.584;5.932;2024-03-08T06:06:20;33.28;;;15.05;;
74528;SDS011;63009;52.584;5.932;2024-03-08T06:08:47;30.58;;;14.27;;
74528;SDS011;63009;52.584;5.932;2024-03-08T06:11:14;31.58;;;15.77;;
74528;SDS011;63009;52.584;5.932;2024-03-08T06:13:40;35.97;;;16.42;;
74528;SDS011;63009;52.584;5.932;2024-03-08T06:16:05;31.15;;;14.68;;
74528;SDS011;63009;52.584;5.932;2024-03-08T06:18:33;32.53;;;15.80;;
74528;SDS011;63009;52.584;5.932;2024-03-08T06:21:01;28.25;;;15.00;;
74528;SDS011;63009;52.584;5.932;2024-03-08T06:23:27;30.58;;;14.68;;
74528;SDS011;63009;52.584;5.932;2024-03-08T06:25:53;30.88;;;15.20;;
74528;SDS011;63009;52.584;5.932;2024-03-08T06:28:19;27.65;;;14.50;;
74528;SDS011;63009;52.584;5.932;2024-03-08T06:30:45;30.02;;;14.77;;
74528;SDS011;63009;52.584;5.932;2024-03-08T06:33:10;29.15;;;15.85;;
74528;SDS011;63009;52.584;5.932;2024-03-08T06:35:36;34.70;;;15.95;;
74528;SDS011;63009;52.584;5.932;2024-03-08T06:38:03;33.05;;;15.27;;
74528;SDS011;63009;52.584;5.932;2024-03-08T06:40:29;38.33;;;16.10;;
74528;SDS011;63009;52.584;5.932;2024-03-08T06:42:54;32.28;;;14.60;;
74528;SDS011;63009;52.584;5.932;2024-03-08T06:45:19;30.52;;;14.65;;
74528;SDS011;63009;52.584;5.932;2024-03-08T06:47:46;30.63;;;15.10;;
74528;SDS011;63009;52.584;5.932;2024-03-08T06:50:12;32.97;;;15.65;;
74528;SDS011;63009;52.584;5.932;2024-03-08T06:52:37;31.85;;;14.77;;
74528;SDS011;63009;52.584;5.932;2024-03-08T06:55:03;33.42;;;16.17;;
74528;SDS011;63009;52.584;5.932;2024-03-08T06:57:30;28.50;;;13.63;;
74528;SDS011;63009;52.584;5.932;2024-03-08T06:59:56;34.05;;;14.48;;
74528;SDS011;63009;52.584;5.932;2024-03-08T07:02:22;33.08;;;15.10;;
74528;SDS011;63009;52.584;5.932;2024-03-08T07:04:49;30.85;;;15.13;;
74528;SDS011;63009;52.584;5.932;2024-03-08T07:07:15;32.05;;;15.18;;
74528;SDS011;63009;52.584;5.932;2024-03-08T07:09:40;32.80;;;16.60;;
74528;SDS011;63009;52.584;5.932;2024-03-08T07:12:07;25.17;;;14.15;;
74528;SDS011;63009;52.584;5.932;2024-03-08T07:14:33;28.63;;;14.40;;
74528;SDS011;63009;52.584;5.932;2024-03-08T07:16:58;30.65;;;16.55;;
74528;SDS011;63009;52.584;5.932;2024-03-08T07:19:24;35.22;;;16.20;;
74528;SDS011;63009;52.584;5.932;2024-03-08T07:21:49;31.45;;;15.23;;
74528;SDS011;63009;52.584;5.932;2024-03-08T07:24:15;31.00;;;15.57;;
74528;SDS011;63009;52.584;5.932;2024-03-08T07:26:45;33.17;;;16.13;;
74528;SDS011;63009;52.584;5.932;2024-03-08T07:29:14;30.67;;;15.48;;
74528;SDS011;63009;52.584;5.932;2024-03-08T07:31:40;33.22;;;16.30;;
74528;SDS011;63009;52.584;5.932;2024-03-08T07:34:24;31.30;;;14.52;;
74528;SDS011;63009;52.584;5.932;2024-03-08T07:36:49;33.97;;;15.63;;
74528;SDS011;63009;52.584;5.932;2024-03-08T07:39:15;34.63;;;16.50;;
74528;SDS011;63009;52.584;5.932;2024-03-08T07:41:41;29.25;;;16.38;;
74528;SDS011;63009;52.584;5.932;2024-03-08T07:44:06;35.95;;;15.90;;
74528;SDS011;63009;52.584;5.932;2024-03-08T07:46:32;35.22;;;16.33;;
74528;SDS011;63009;52.584;5.932;2024-03-08T07:48:59;30.23;;;14.68;;
74528;SDS011;63009;52.584;5.932;2024-03-08T07:51:25;28.65;;;15.18;;
74528;SDS011;63009;52.584;5.932;2024-03-08T07:53:50;33.95;;;17.02;;
74528;SDS011;63009;52.584;5.932;2024-03-08T07:56:15;29.55;;;14.68;;
74528;SDS011;63009;52.584;5.932;2024-03-08T07:58:43;31.10;;;15.35;;
74528;SDS011;63009;52.584;5.932;2024-03-08T08:01:15;28.77;;;14.80;;
74528;SDS011;63009;52.584;5.932;2024-03-08T08:03:43;28.88;;;14.95;;
74528;SDS011;63009;52.584;5.932;2024-03-08T08:06:09;31.75;;;15.27;;
74528;SDS011;63009;52.584;5.932;2024-03-08T08:08:36;30.50;;;14.93;;
74528;SDS011;63009;52.584;5.932;2024-03-08T08:11:01;32.90;;;15.15;;
74528;SDS011;63009;52.584;5.932;2024-03-08T08:13:27;26.23;;;14.88;;
74528;SDS011;63009;52.584;5.932;2024-03-08T08:15:57;28.65;;;15.38;;
74528;SDS011;63009;52.584;5.932;2024-03-08T08:18:23;32.17;;;14.65;;
74528;SDS011;63009;52.584;5.932;2024-03-08T08:20:50;27.50;;;15.07;;
74528;SDS011;63009;52.584;5.932;2024-03-08T08:23:17;30.00;;;15.48;;
74528;SDS011;63009;52.584;5.932;2024-03-08T08:25:44;29.88;;;16.85;;
74528;SDS011;63009;52.584;5.932;2024-03-08T08:28:10;35.50;;;17.70;;
74528;SDS011;63009;52.584;5.932;2024-03-08T08:30:35;31.83;;;15.90;;
74528;SDS011;63009;52.584;5.932;2024-03-08T08:33:00;31.55;;;16.55;;
74528;SDS011;63009;52.584;5.932;2024-03-08T08:35:26;31.42;;;15.38;;
74528;SDS011;63009;52.584;5.932;2024-03-08T08:37:52;29.17;;;15.50;;
74528;SDS011;63009;52.584;5.932;2024-03-08T08:40:17;31.10;;;15.50;;
74528;SDS011;63009;52.584;5.932;2024-03-08T08:42:44;31.30;;;15.70;;
74528;SDS011;63009;52.584;5.932;2024-03-08T08:45:11;28.15;;;14.25;;
74528;SDS011;63009;52.584;5.932;2024-03-08T08:47:36;29.85;;;14.93;;
74528;SDS011;63009;52.584;5.932;2024-03-08T08:50:02;28.55;;;15.38;;
74528;SDS011;63009;52.584;5.932;2024-03-08T08:52:30;29.02;;;14.73;;
74528;SDS011;63009;52.584;5.932;2024-03-08T08:54:56;30.85;;;16.02;;
74528;SDS011;63009;52.584;5.932;2024-03-08T08:57:22;30.42;;;15.82;;
74528;SDS011;63009;52.584;5.932;2024-03-08T08:59:47;28.98;;;15.13;;
74528;SDS011;63009;52.584;5.932;2024-03-08T09:02:13;31.80;;;14.45;;
74528;SDS011;63009;52.584;5.932;2024-03-08T09:04:41;27.70;;;15.30;;
74528;SDS011;63009;52.584;5.932;2024-03-08T09:07:07;29.10;;;15.50;;
74528;SDS011;63009;52.584;5.932;2024-03-08T09:09:33;28.23;;;14.93;;
74528;SDS011;63009;52.584;5.932;2024-03-08T09:11:58;27.25;;;14.43;;
74528;SDS011;63009;52.584;5.932;2024-03-08T09:14:23;27.95;;;15.25;;
74528;SDS011;63009;52.584;5.932;2024-03-08T09:16:51;29.98;;;15.75;;
74528;SDS011;63009;52.584;5.932;2024-03-08T09:19:16;31.83;;;15.50;;
74528;SDS011;63009;52.584;5.932;2024-03-08T09:21:42;27.50;;;13.85;;
74528;SDS011;63009;52.584;5.932;2024-03-08T09:24:08;31.55;;;15.52;;
74528;SDS011;63009;52.584;5.932;2024-03-08T09:26:34;29.73;;;14.90;;
74528;SDS011;63009;52.584;5.932;2024-03-08T09:28:59;30.08;;;14.05;;
74528;SDS011;63009;52.584;5.932;2024-03-08T09:31:25;30.17;;;15.50;;
74528;SDS011;63009;52.584;5.932;2024-03-08T09:33:51;27.95;;;14.23;;
74528;SDS011;63009;52.584;5.932;2024-03-08T09:36:16;26.90;;;14.43;;
74528;SDS011;63009;52.584;5.932;2024-03-08T09:38:42;27.05;;;15.30;;
74528;SDS011;63009;52.584;5.932;2024-03-08T09:41:08;29.08;;;14.93;;
74528;SDS011;63009;52.584;5.932;2024-03-08T09:43:35;29.85;;;14.77;;
74528;SDS011;63009;52.584;5.932;2024-03-08T09:46:01;29.52;;;15.85;;
74528;SDS011;63009;52.584;5.932;2024-03-08T09:48:28;29.85;;;15.02;;
74528;SDS011;63009;52.584;5.932;2024-03-08T09:50:54;31.42;;;16.05;;
74528;SDS011;63009;52.584;5.932;2024-03-08T09:53:20;26.20;;;14.90;;
74528;SDS011;63009;52.584;5.932;2024-03-08T09:55:47;30.60;;;16.48;;
74528;SDS011;63009;52.584;5.932;2024-03-08T09:58:14;27.95;;;15.90;;
74528;SDS011;63009;52.584;5.932;2024-03-08T10:00:46;27.77;;;16.25;;
74528;SDS011;63009;52.584;5.932;2024-03-08T10:03:12;27.98;;;14.55;;
74528;SDS011;63009;52.584;5.932;2024-03-08T10:05:39;27.95;;;14.20;;
74528;SDS011;63009;52.584;5.932;2024-03-08T10:08:05;31.67;;;16.92;;
74528;SDS011;63009;52.584;5.932;2024-03-08T10:10:33;29.98;;;16.63;;
74528;SDS011;63009;52.584;5.932;2024-03-08T10:12:59;30.05;;;15.90;;
74528;SDS011;63009;52.584;5.932;2024-03-08T10:15:26;27.55;;;14.85;;
74528;SDS011;63009;52.584;5.932;2024-03-08T10:17:55;26.45;;;14.80;;
74528;SDS011;63009;52.584;5.932;2024-03-08T10:20:21;32.75;;;15.98;;
74528;SDS011;63009;52.584;5.932;2024-03-08T10:22:46;27.90;;;14.88;;
74528;SDS011;63009;52.584;5.932;2024-03-08T10:25:12;27.30;;;14.77;;
74528;SDS011;63009;52.584;5.932;2024-03-08T10:27:38;27.38;;;15.95;;
74528;SDS011;63009;52.584;5.932;2024-03-08T10:30:05;30.35;;;15.77;;
74528;SDS011;63009;52.584;5.932;2024-03-08T10:32:35;28.90;;;15.05;;
74528;SDS011;63009;52.584;5.932;2024-03-08T10:35:00;28.90;;;14.95;;
74528;SDS011;63009;52.584;5.932;2024-03-08T10:37:26;27.48;;;13.93;;
74528;SDS011;63009;52.584;5.932;2024-03-08T10:42:35;25.73;;;14.63;;
74528;SDS011;63009;52.584;5.932;2024-03-08T10:45:12;26.63;;;15.80;;
74528;SDS011;63009;52.584;5.932;2024-03-08T10:47:41;31.23;;;14.88;;
74528;SDS011;63009;52.584;5.932;2024-03-08T10:50:11;31.85;;;17.02;;
74528;SDS011;63009;52.584;5.932;2024-03-08T10:52:41;29.40;;;16.95;;
74528;SDS011;63009;52.584;5.932;2024-03-08T10:55:06;33.63;;;16.27;;
74528;SDS011;63009;52.584;5.932;2024-03-08T10:57:38;27.73;;;14.18;;
74528;SDS011;63009;52.584;5.932;2024-03-08T11:00:04;30.15;;;16.23;;
74528;SDS011;63009;52.584;5.932;2024-03-08T11:02:35;28.52;;;15.55;;
74528;SDS011;63009;52.584;5.932;2024-03-08T11:05:00;27.58;;;14.77;;
74528;SDS011;63009;52.584;5.932;2024-03-08T11:07:30;27.60;;;14.68;;
74528;SDS011;63009;52.584;5.932;2024-03-08T11:10:02;27.98;;;14.70;;
74528;SDS011;63009;52.584;5.932;2024-03-08T11:12:35;35.42;;;16.35;;
74528;SDS011;63009;52.584;5.932;2024-03-08T11:15:03;26.50;;;12.85;;
74528;SDS011;63009;52.584;5.932;2024-03-08T11:20:08;27.05;;;14.00;;
74528;SDS011;63009;52.584;5.932;2024-03-08T11:22:48;28.52;;;15.55;;
74528;SDS011;63009;52.584;5.932;2024-03-08T11:25:38;27.40;;;16.38;;
74528;SDS011;63009;52.584;5.932;2024-03-08T11:30:41;27.35;;;14.18;;
74528;SDS011;63009;52.584;5.932;2024-03-08T11:33:10;29.60;;;15.57;;
74528;SDS011;63009;52.584;5.932;2024-03-08T11:35:40;30.27;;;14.98;;
74528;SDS011;63009;52.584;5.932;2024-03-08T11:38:07;24.92;;;13.32;;
74528;SDS011;63009;52.584;5.932;2024-03-08T11:40:34;25.77;;;13.77;;
74528;SDS011;63009;52.584;5.932;2024-03-08T11:43:00;28.00;;;14.93;;
74528;SDS011;63009;52.584;5.932;2024-03-08T11:45:29;23.92;;;13.95;;
74528;SDS011;63009;52.584;5.932;2024-03-08T11:47:54;28.75;;;15.32;;
74528;SDS011;63009;52.584;5.932;2024-03-08T11:50:20;27.20;;;15.48;;
74528;SDS011;63009;52.584;5.932;2024-03-08T11:52:51;25.13;;;13.52;;
74528;SDS011;63009;52.584;5.932;2024-03-08T11:55:27;29.30;;;16.08;;
74528;SDS011;63009;52.584;5.932;2024-03-08T11:58:03;26.38;;;13.43;;
74528;SDS011;63009;52.584;5.932;2024-03-08T12:00:30;27.02;;;15.15;;
74528;SDS011;63009;52.584;5.932;2024-03-08T12:03:07;26.15;;;13.52;;
74528;SDS011;63009;52.584;5.932;2024-03-08T12:05:37;28.30;;;15.18;;
74528;SDS011;63009;52.584;5.932;2024-03-08T12:08:03;26.95;;;13.95;;
74528;SDS011;63009;52.584;5.932;2024-03-08T12:10:31;28.52;;;15.73;;
74528;SDS011;63009;52.584;5.932;2024-03-08T12:12:58;25.42;;;14.25;;
74528;SDS011;63009;52.584;5.932;2024-03-08T12:15:28;27.17;;;14.85;;
74528;SDS011;63009;52.584;5.932;2024-03-08T12:17:54;25.48;;;15.77;;
74528;SDS011;63009;52.584;5.932;2024-03-08T12:22:47;25.13;;;14.05;;
74528;SDS011;63009;52.584;5.932;2024-03-08T12:25:14;22.92;;;13.05;;
74528;SDS011;63009;52.584;5.932;2024-03-08T12:27:41;25.98;;;14.43;;
74528;SDS011;63009;52.584;5.932;2024-03-08T12:32:59;25.63;;;14.10;;
74528;SDS011;63009;52.584;5.932;2024-03-08T12:35:26;26.13;;;14.18;;
74528;SDS011;63009;52.584;5.932;2024-03-08T12:37:53;28.40;;;14.80;;
74528;SDS011;63009;52.584;5.932;2024-03-08T12:40:26;23.55;;;12.25;;
74528;SDS011;63009;52.584;5.932;2024-03-08T12:42:53;25.17;;;13.90;;
74528;SDS011;63009;52.584;5.932;2024-03-08T12:45:25;29.05;;;14.20;;
74528;SDS011;63009;52.584;5.932;2024-03-08T12:47:52;28.23;;;14.48;;
74528;SDS011;63009;52.584;5.932;2024-03-08T12:50:23;25.15;;;13.75;;
74528;SDS011;63009;52.584;5.932;2024-03-08T12:52:51;25.58;;;14.27;;
74528;SDS011;63009;52.584;5.932;2024-03-08T12:55:20;23.80;;;13.32;;
74528;SDS011;63009;52.584;5.932;2024-03-08T12:57:46;24.00;;;13.35;;
74528;SDS011;63009;52.584;5.932;2024-03-08T13:00:12;25.75;;;13.63;;
74528;SDS011;63009;52.584;5.932;2024-03-08T13:02:48;24.30;;;12.70;;
74528;SDS011;63009;52.584;5.932;2024-03-08T13:05:16;30.55;;;14.43;;
74528;SDS011;63009;52.584;5.932;2024-03-08T13:07:41;24.75;;;12.90;;
74528;SDS011;63009;52.584;5.932;2024-03-08T13:10:11;25.48;;;13.75;;
74528;SDS011;63009;52.584;5.932;2024-03-08T13:15:06;25.05;;;13.52;;
74528;SDS011;63009;52.584;5.932;2024-03-08T13:17:33;25.75;;;12.95;;
74528;SDS011;63009;52.584;5.932;2024-03-08T13:19:59;23.92;;;13.35;;
74528;SDS011;63009;52.584;5.932;2024-03-08T13:22:24;21.40;;;12.30;;
74528;SDS011;63009;52.584;5.932;2024-03-08T13:24:49;22.10;;;12.80;;
74528;SDS011;63009;52.584;5.932;2024-03-08T13:27:17;24.95;;;13.80;;
74528;SDS011;63009;52.584;5.932;2024-03-08T13:29:47;25.42;;;13.43;;
74528;SDS011;63009;52.584;5.932;2024-03-08T13:32:17;24.98;;;12.52;;
74528;SDS011;63009;52.584;5.932;2024-03-08T13:34:49;24.70;;;12.52;;
74528;SDS011;63009;52.584;5.932;2024-03-08T13:37:21;25.33;;;12.68;;
74528;SDS011;63009;52.584;5.932;2024-03-08T13:39:46;25.27;;;12.60;;
74528;SDS011;63009;52.584;5.932;2024-03-08T13:42:12;23.98;;;12.40;;
74528;SDS011;63009;52.584;5.932;2024-03-08T13:44:43;26.33;;;12.75;;
74528;SDS011;63009;52.584;5.932;2024-03-08T13:47:09;24.58;;;13.20;;
74528;SDS011;63009;52.584;5.932;2024-03-08T13:49:39;22.48;;;12.05;;
74528;SDS011;63009;52.584;5.932;2024-03-08T13:52:11;27.85;;;13.68;;
74528;SDS011;63009;52.584;5.932;2024-03-08T13:54:41;26.40;;;14.40;;
74528;SDS011;63009;52.584;5.932;2024-03-08T13:57:12;22.42;;;12.45;;
74528;SDS011;63009;52.584;5.932;2024-03-08T13:59:37;27.73;;;13.75;;
74528;SDS011;63009;52.584;5.932;2024-03-08T14:02:05;24.52;;;12.82;;
74528;SDS011;63009;52.584;5.932;2024-03-08T14:04:38;24.88;;;12.90;;
74528;SDS011;63009;52.584;5.932;2024-03-08T14:07:09;22.73;;;14.05;;
74528;SDS011;63009;52.584;5.932;2024-03-08T14:09:36;26.48;;;14.10;;
74528;SDS011;63009;52.584;5.932;2024-03-08T14:12:07;26.60;;;12.40;;
74528;SDS011;63009;52.584;5.932;2024-03-08T14:14:33;28.33;;;13.63;;
74528;SDS011;63009;52.584;5.932;2024-03-08T14:17:01;23.10;;;12.73;;
74528;SDS011;63009;52.584;5.932;2024-03-08T14:19:28;28.83;;;14.93;;
74528;SDS011;63009;52.584;5.932;2024-03-08T14:21:55;24.30;;;12.48;;
74528;SDS011;63009;52.584;5.932;2024-03-08T14:24:21;25.70;;;14.05;;
74528;SDS011;63009;52.584;5.932;2024-03-08T14:26:46;25.33;;;13.48;;
74528;SDS011;63009;52.584;5.932;2024-03-08T14:29:14;23.40;;;12.77;;
74528;SDS011;63009;52.584;5.932;2024-03-08T14:31:40;24.92;;;13.65;;
74528;SDS011;63009;52.584;5.932;2024-03-08T14:34:08;23.77;;;13.57;;